Time;durP1;ratioP1;P1;durP2;ratioP2;P2;SDS_P1;SDS_P2;PMS_P1;PMS_P2;Temp;Humidity;BMP_temperature;BMP_pressure;BME280_temperature;BME280_humidity;BME280_pressure;Samples;Min_cycle;Max_cycle;Signal;HPM_P1;HPM_P2
2022/06/17 00:01:48;;;;;;;2.90;2.60;;;24.80;93.50;;;;;;4222718;28;20217;-75
2022/06/17 00:03:51;;;;;;;2.58;2.38;;;24.80;93.50;;;;;;4225083;28;20213;-75
2022/06/17 00:05:56;;;;;;;2.70;2.50;;;24.80;93.50;;;;;;4225985;28;20217;-75
2022/06/17 00:07:58;;;;;;;4.28;2.90;;;24.80;93.60;;;;;;4226187;28;20259;-75
2022/06/17 00:10:00;;;;;;;3.67;2.50;;;24.80;93.50;;;;;;4226204;28;20214;-75
2022/06/17 00:12:03;;;;;;;2.80;2.55;;;24.70;93.60;;;;;;4227504;28;20218;-75
2022/06/17 00:14:13;;;;;;;3.08;2.72;;;24.70;93.50;;;;;;4230991;28;20266;-75
2022/06/17 00:16:17;;;;;;;4.43;2.85;;;24.70;93.60;;;;;;4225717;28;20275;-75
2022/06/17 00:18:21;;;;;;;3.13;2.67;;;24.70;93.60;;;;;;4227438;28;20286;-75
2022/06/17 00:20:25;;;;;;;2.75;2.45;;;24.70;93.60;;;;;;4222722;28;20217;-75
2022/06/17 00:22:27;;;;;;;2.92;2.65;;;24.70;93.60;;;;;;4225212;28;20213;-75
2022/06/17 00:24:33;;;;;;;2.78;2.50;;;24.70;93.60;;;;;;4222838;28;20650;-75
2022/06/17 00:26:35;;;;;;;2.70;2.50;;;24.70;93.60;;;;;;4223824;28;20602;-75
2022/06/17 00:28:37;;;;;;;3.25;2.92;;;24.70;93.60;;;;;;4224881;28;20270;-75
2022/06/17 00:30:42;;;;;;;2.97;2.65;;;24.70;93.70;;;;;;4221039;28;20267;-75
2022/06/17 00:32:44;;;;;;;3.58;2.60;;;24.70;93.80;;;;;;4224508;28;20615;-75
2022/06/17 00:34:46;;;;;;;3.50;2.60;;;24.70;93.80;;;;;;4225127;28;20283;-75
2022/06/17 00:36:49;;;;;;;2.80;2.60;;;24.70;93.70;;;;;;4225532;28;20222;-75
2022/06/17 00:38:52;;;;;;;2.88;2.67;;;24.70;93.70;;;;;;4224348;28;20226;-76
2022/06/17 00:40:54;;;;;;;2.92;2.67;;;24.70;93.70;;;;;;4224112;28;20222;-76
2022/06/17 00:42:59;;;;;;;2.58;2.38;;;24.70;93.80;;;;;;4229932;27;20651;-76
2022/06/17 00:45:08;;;;;;;2.75;2.53;;;24.70;93.80;;;;;;4228647;27;20692;-76
2022/06/17 00:47:20;;;;;;;3.85;2.58;;;24.70;93.90;;;;;;4227843;27;20259;-76
2022/06/17 00:49:33;;;;;;;2.65;2.40;;;24.70;94.00;;;;;;4229874;27;20266;-75
2022/06/17 00:51:41;;;;;;;3.40;2.70;;;24.70;94.00;;;;;;4230640;27;20209;-75
2022/06/17 00:53:50;;;;;;;2.78;2.35;;;24.70;94.00;;;;;;4225254;28;20254;-76
2022/06/17 00:55:55;;;;;;;3.45;2.90;;;24.70;94.10;;;;;;4226980;27;20213;-76
2022/06/17 00:58:01;;;;;;;2.70;2.30;;;24.60;94.10;;;;;;4228387;27;20715;-76
2022/06/17 01:00:14;;;;;;;2.55;2.22;;;24.70;94.10;;;;;;4226027;28;20263;-76
2022/06/17 01:02:18;;;;;;;2.80;2.60;;;24.60;94.10;;;;;;4224987;28;20263;-76
2022/06/17 01:04:23;;;;;;;2.75;2.30;;;24.60;94.10;;;;;;4226795;27;20214;-76
2022/06/17 01:06:32;;;;;;;3.40;2.42;;;24.60;94.10;;;;;;4226777;28;20222;-76
2022/06/17 01:10:58;;;;;;;2.88;2.60;;;24.60;94.10;;;;;;4225395;28;20233;-76
2022/06/17 01:13:05;;;;;;;3.90;2.60;;;24.60;94.20;;;;;;4223890;28;20214;-76
2022/06/17 01:15:09;;;;;;;2.55;2.35;;;24.60;94.20;;;;;;4231395;27;20271;-76
2022/06/17 01:17:15;;;;;;;2.72;2.38;;;24.60;94.30;;;;;;4240871;27;20242;-76
2022/06/17 01:19:28;;;;;;;2.53;2.33;;;24.60;94.30;;;;;;4230957;27;20319;-76
2022/06/17 01:21:39;;;;;;;2.53;2.30;;;24.60;94.30;;;;;;4224702;28;20209;-76
2022/06/17 01:23:43;;;;;;;2.75;2.55;;;24.60;94.70;;;;;;4227441;28;20290;-76
2022/06/17 01:25:47;;;;;;;2.58;2.30;;;24.60;94.30;;;;;;4238201;27;20704;-76
2022/06/17 01:27:53;;;;;;;3.75;2.42;;;24.60;94.30;;;;;;4230657;27;20599;-76
2022/06/17 01:29:56;;;;;;;3.05;2.45;;;24.60;94.40;;;;;;4234659;27;20206;-76
2022/06/17 01:31:58;;;;;;;3.03;2.58;;;24.60;94.40;;;;;;4231807;27;20259;-75
2022/06/17 01:34:01;;;;;;;3.10;2.15;;;24.60;94.40;;;;;;4232472;27;20271;-76
2022/06/17 01:36:06;;;;;;;3.28;2.22;;;24.60;94.40;;;;;;4233084;27;20213;-76
2022/06/17 01:38:09;;;;;;;2.88;2.42;;;24.60;94.50;;;;;;4230440;27;20875;-76
2022/06/17 01:40:14;;;;;;;2.92;2.65;;;24.60;94.50;;;;;;4232425;27;20210;-76
2022/06/17 01:42:16;;;;;;;3.75;2.47;;;24.60;94.50;;;;;;4234795;27;20213;-76
2022/06/17 01:44:22;;;;;;;3.90;2.53;;;24.60;94.50;;;;;;4225540;28;20229;-76
2022/06/17 01:46:30;;;;;;;2.70;2.40;;;24.50;94.50;;;;;;4234950;27;20708;-76
2022/06/17 01:48:37;;;;;;;2.50;2.30;;;24.50;94.50;;;;;;4231177;27;20659;-76
2022/06/17 01:50:41;;;;;;;2.65;2.40;;;24.50;94.60;;;;;;4232353;27;20210;-76
2022/06/17 01:52:49;;;;;;;2.90;2.38;;;24.50;94.60;;;;;;4232555;27;20661;-76
2022/06/17 01:54:58;;;;;;;3.25;2.45;;;24.50;94.60;;;;;;4234363;27;20545;-76
2022/06/17 01:57:04;;;;;;;2.78;2.30;;;24.50;94.70;;;;;;4232352;27;20213;-76
2022/06/17 01:59:11;;;;;;;2.92;2.72;;;24.50;94.60;;;;;;4235472;27;20237;-76
2022/06/17 02:01:14;;;;;;;4.95;3.03;;;24.50;94.70;;;;;;4225499;28;20254;-76
2022/06/17 02:03:23;;;;;;;4.53;2.35;;;24.50;94.70;;;;;;4233919;27;20262;-76
2022/06/17 02:05:27;;;;;;;2.67;2.40;;;24.50;94.70;;;;;;4227831;28;20217;-76
2022/06/17 02:07:34;;;;;;;3.20;2.47;;;24.50;94.70;;;;;;4237017;27;20301;-76
2022/06/17 02:09:37;;;;;;;3.03;2.33;;;24.50;94.70;;;;;;4229986;27;20209;-76
2022/06/17 02:11:39;;;;;;;2.70;2.20;;;24.50;94.70;;;;;;4235666;27;20238;-76
2022/06/17 02:13:43;;;;;;;3.53;2.72;;;24.50;94.70;;;;;;4227535;27;20210;-76
2022/06/17 02:15:47;;;;;;;2.75;2.38;;;24.50;94.70;;;;;;4227734;27;20214;-76
2022/06/17 02:17:50;;;;;;;3.15;2.20;;;24.50;94.80;;;;;;4225191;27;20210;-76
2022/06/17 02:19:53;;;;;;;2.90;2.40;;;24.50;94.80;;;;;;4233063;27;20275;-76
2022/06/17 02:22:02;;;;;;;3.10;2.40;;;24.50;94.90;;;;;;4232654;27;20214;-76
2022/06/17 02:24:05;;;;;;;2.70;2.50;;;24.50;94.80;;;;;;4233099;27;20274;-76
2022/06/17 02:26:09;;;;;;;2.45;2.22;;;24.50;94.70;;;;;;4227076;28;20278;-76
2022/06/17 02:28:12;;;;;;;3.15;2.45;;;24.50;94.80;;;;;;4227521;28;20263;-76
2022/06/17 02:30:16;;;;;;;2.38;2.17;;;24.50;94.80;;;;;;4223831;28;20266;-76
2022/06/17 02:32:20;;;;;;;3.10;2.58;;;24.50;94.80;;;;;;4227850;27;20275;-75
2022/06/17 02:34:24;;;;;;;3.60;2.63;;;24.50;94.90;;;;;;4227414;27;20218;-75
2022/06/17 02:36:32;;;;;;;2.60;2.40;;;24.50;94.90;;;;;;4230568;27;20252;-76
2022/06/17 02:38:36;;;;;;;3.05;2.75;;;24.50;94.90;;;;;;4231034;27;20254;-76
2022/06/17 02:40:44;;;;;;;3.10;2.20;;;24.40;94.80;;;;;;4226752;27;20245;-76
2022/06/17 02:42:47;;;;;;;2.40;2.20;;;24.50;94.90;;;;;;4226932;27;20238;-75
2022/06/17 02:44:54;;;;;;;3.03;2.63;;;24.50;94.90;;;;;;4227172;27;20317;-76
2022/06/17 02:47:01;;;;;;;2.75;2.53;;;24.40;95.00;;;;;;4225798;28;20259;-76
2022/06/17 02:49:07;;;;;;;3.40;2.45;;;24.40;95.00;;;;;;4227365;27;20251;-76
2022/06/17 02:51:12;;;;;;;2.67;2.47;;;24.40;94.90;;;;;;4226507;27;20210;-76
2022/06/17 02:53:15;;;;;;;3.50;2.28;;;24.40;94.90;;;;;;4225703;27;20209;-76
2022/06/17 02:55:21;;;;;;;3.45;2.50;;;24.40;94.90;;;;;;4224465;28;20225;-76
2022/06/17 02:57:26;;;;;;;2.97;2.47;;;24.40;95.20;;;;;;4224060;28;20607;-76
2022/06/17 02:59:35;;;;;;;2.55;2.35;;;24.40;95.30;;;;;;4221124;28;20693;-76
2022/06/17 03:01:41;;;;;;;3.10;2.70;;;24.40;95.00;;;;;;4220978;28;20267;-76
2022/06/17 03:03:46;;;;;;;3.17;2.45;;;24.40;95.00;;;;;;4223234;28;20267;-76
2022/06/17 03:05:48;;;;;;;2.50;2.30;;;24.40;95.00;;;;;;4226686;27;20259;-76
2022/06/17 03:07:52;;;;;;;2.63;2.40;;;24.40;95.00;;;;;;4226294;27;20222;-76
2022/06/17 03:09:54;;;;;;;4.03;2.25;;;24.40;95.10;;;;;;4223146;28;20231;-76
2022/06/17 03:12:02;;;;;;;3.25;2.72;;;24.40;95.10;;;;;;4211364;28;20315;-76
2022/06/17 03:14:09;;;;;;;2.60;2.40;;;24.40;95.20;;;;;;4207530;28;20223;-76
2022/06/17 03:16:14;;;;;;;2.75;2.50;;;24.40;95.10;;;;;;4208804;28;20613;-76
2022/06/17 03:18:17;;;;;;;2.58;2.30;;;24.40;95.10;;;;;;4210443;28;20274;-76
2022/06/17 03:20:24;;;;;;;3.00;2.33;;;24.40;95.10;;;;;;4206665;28;20243;-76
2022/06/17 03:22:27;;;;;;;2.80;2.40;;;24.40;95.20;;;;;;4208292;28;20244;-76
2022/06/17 03:24:38;;;;;;;2.78;2.40;;;24.40;95.20;;;;;;4210962;28;20222;-76
2022/06/17 03:26:45;;;;;;;3.15;2.53;;;24.40;95.10;;;;;;4209992;28;20267;-75
2022/06/17 03:28:51;;;;;;;2.40;2.20;;;24.40;95.10;;;;;;4210154;28;20218;-76
2022/06/17 03:30:57;;;;;;;2.97;2.70;;;24.40;95.10;;;;;;4209026;28;20550;-76
2022/06/17 03:33:06;;;;;;;4.22;2.40;;;24.40;95.20;;;;;;4208376;28;20210;-75
2022/06/17 03:35:18;;;;;;;2.78;2.20;;;24.40;95.20;;;;;;4207686;28;20624;-76
2022/06/17 03:37:24;;;;;;;2.72;2.53;;;24.40;95.10;;;;;;4212429;28;20727;-76
2022/06/17 03:39:34;;;;;;;2.53;2.33;;;24.40;95.00;;;;;;4213019;28;20571;-76
2022/06/17 03:41:43;;;;;;;2.63;2.42;;;24.40;95.20;;;;;;4206768;28;20670;-76
2022/06/17 03:43:50;;;;;;;2.72;2.20;;;24.40;95.00;;;;;;4206055;28;20263;-76
2022/06/17 03:45:57;;;;;;;3.20;2.25;;;24.40;95.00;;;;;;4208712;28;20263;-76
2022/06/17 03:48:04;;;;;;;3.58;2.50;;;24.40;95.00;;;;;;4205150;28;20592;-76
2022/06/17 03:50:12;;;;;;;2.35;2.15;;;24.40;95.00;;;;;;4209240;28;20209;-76
2022/06/17 03:52:25;;;;;;;2.53;2.33;;;24.30;95.00;;;;;;4207693;28;20225;-76
2022/06/17 03:54:27;;;;;;;3.05;2.40;;;24.40;95.10;;;;;;4207474;28;20284;-76
2022/06/17 03:56:33;;;;;;;2.88;2.53;;;24.40;95.10;;;;;;4208727;28;20283;-76
2022/06/17 03:58:39;;;;;;;2.70;2.50;;;24.40;95.20;;;;;;4204887;28;20304;-76
2022/06/17 04:00:45;;;;;;;2.60;2.38;;;24.40;95.30;;;;;;4205455;28;20234;-76
2022/06/17 04:02:48;;;;;;;2.63;2.13;;;24.40;95.20;;;;;;4207913;28;21045;-76
2022/06/17 04:04:53;;;;;;;2.65;2.45;;;24.40;95.20;;;;;;4212231;28;20214;-76
2022/06/17 04:06:57;;;;;;;2.60;2.40;;;24.40;95.40;;;;;;4211934;28;20275;-76
2022/06/17 04:09:03;;;;;;;3.40;2.40;;;24.40;95.30;;;;;;4211874;28;20215;-76
2022/06/17 04:11:05;;;;;;;2.50;2.30;;;24.30;95.20;;;;;;4208857;28;20524;-76
2022/06/17 04:13:13;;;;;;;2.25;2.05;;;24.30;95.20;;;;;;4207990;28;20268;-76
2022/06/17 04:15:25;;;;;;;2.90;2.70;;;24.30;95.30;;;;;;4208193;28;20210;-76
2022/06/17 04:17:35;;;;;;;2.40;2.20;;;24.30;95.20;;;;;;4209048;28;20214;-76
2022/06/17 04:19:38;;;;;;;2.60;2.25;;;24.30;95.40;;;;;;4211522;28;20213;-76
2022/06/17 04:21:40;;;;;;;2.83;2.55;;;24.30;95.40;;;;;;4211702;28;20214;-76
2022/06/17 04:23:43;;;;;;;2.90;2.58;;;24.30;95.40;;;;;;4211535;28;20682;-76
2022/06/17 04:25:51;;;;;;;2.40;2.20;;;24.30;95.40;;;;;;4212567;28;20218;-76
2022/06/17 04:27:57;;;;;;;2.63;2.42;;;24.30;95.40;;;;;;4210633;28;20218;-76
2022/06/17 04:30:00;;;;;;;2.83;2.20;;;24.30;95.40;;;;;;4211134;28;20214;-75
2022/06/17 04:32:11;;;;;;;2.28;2.08;;;24.30;95.40;;;;;;4211563;28;20214;-75
2022/06/17 04:34:15;;;;;;;2.50;2.30;;;24.30;95.40;;;;;;4209508;28;20218;-76
2022/06/17 04:36:23;;;;;;;2.70;2.47;;;24.30;95.40;;;;;;4210884;28;20221;-76
2022/06/17 04:38:27;;;;;;;2.50;2.30;;;24.30;95.40;;;;;;4210039;28;20210;-76
2022/06/17 04:40:38;;;;;;;2.70;2.40;;;24.30;95.40;;;;;;4210648;28;20238;-75
2022/06/17 04:42:43;;;;;;;2.83;2.30;;;24.30;95.40;;;;;;4210692;28;20720;-75
2022/06/17 04:44:46;;;;;;;2.50;2.30;;;24.30;95.40;;;;;;4210693;28;20233;-75
2022/06/17 04:46:52;;;;;;;2.22;2.03;;;24.30;95.50;;;;;;4210216;28;20625;-76
2022/06/17 04:48:57;;;;;;;3.53;2.30;;;24.30;95.20;;;;;;4191195;28;20296;-75
2022/06/17 04:51:00;;;;;;;2.80;2.13;;;24.40;95.10;;;;;;4193561;28;20219;-75
2022/06/17 04:53:03;;;;;;;2.50;2.30;;;24.30;95.10;;;;;;4196261;28;20223;-75
2022/06/17 04:55:11;;;;;;;2.60;2.40;;;24.30;95.40;;;;;;4195260;28;20701;-76
2022/06/17 04:57:15;;;;;;;3.05;2.03;;;24.30;95.10;;;;;;4193544;28;20214;-75
2022/06/17 04:59:29;;;;;;;2.33;2.13;;;24.40;95.30;;;;;;4194371;28;20222;-76
2022/06/17 05:01:31;;;;;;;3.40;2.38;;;24.30;95.10;;;;;;4193652;28;20698;-75
2022/06/17 05:03:34;;;;;;;2.40;2.20;;;24.40;95.20;;;;;;4207184;28;20226;-75
2022/06/17 05:05:38;;;;;;;2.55;2.30;;;24.40;95.50;;;;;;4211052;28;20736;-75
2022/06/17 05:07:45;;;;;;;3.05;2.53;;;24.40;95.10;;;;;;4210291;28;20214;-76
2022/06/17 05:09:51;;;;;;;2.28;2.03;;;24.40;95.10;;;;;;4210474;28;20299;-75
2022/06/17 05:11:58;;;;;;;2.40;2.17;;;24.40;95.10;;;;;;4226538;27;20278;-75
2022/06/17 05:14:05;;;;;;;2.22;2.03;;;24.40;95.10;;;;;;4226294;27;20263;-76
2022/06/17 05:16:12;;;;;;;5.55;2.80;;;24.40;95.00;;;;;;4228150;27;20214;-76
2022/06/17 05:18:15;;;;;;;2.55;2.35;;;24.40;95.50;;;;;;4226234;28;20240;-75
2022/06/17 05:20:20;;;;;;;3.15;2.60;;;24.40;95.20;;;;;;4223848;28;20210;-76
2022/06/17 05:22:26;;;;;;;2.60;2.20;;;24.40;95.10;;;;;;4226777;28;20209;-76
2022/06/17 05:24:30;;;;;;;2.58;2.20;;;24.40;95.20;;;;;;4225594;28;20229;-76
2022/06/17 05:26:33;;;;;;;2.55;2.25;;;24.40;95.00;;;;;;4224655;28;20218;-75
2022/06/17 05:28:35;;;;;;;2.63;2.28;;;24.40;95.00;;;;;;4224985;28;20719;-76
2022/06/17 05:30:39;;;;;;;3.60;2.45;;;24.40;95.00;;;;;;4226857;28;20206;-76
2022/06/17 05:32:48;;;;;;;2.88;2.50;;;24.40;95.00;;;;;;4226058;27;20631;-75
2022/06/17 05:34:51;;;;;;;2.85;2.00;;;24.40;95.00;;;;;;4226809;28;20246;-75
2022/06/17 05:36:56;;;;;;;3.60;2.17;;;24.40;95.00;;;;;;4224717;28;20210;-75
2022/06/17 05:38:59;;;;;;;3.65;2.28;;;24.40;95.00;;;;;;4227589;27;20263;-76
2022/06/17 05:41:01;;;;;;;3.95;2.28;;;24.40;95.10;;;;;;4226043;28;20529;-76
2022/06/17 05:43:03;;;;;;;2.72;2.15;;;24.40;95.00;;;;;;4224977;28;20202;-75
2022/06/17 05:45:10;;;;;;;2.88;2.58;;;24.40;95.00;;;;;;4227648;27;20213;-75
2022/06/17 05:47:12;;;;;;;3.42;2.42;;;24.40;95.00;;;;;;4225180;27;20218;-76
2022/06/17 05:49:16;;;;;;;2.65;2.42;;;24.40;95.10;;;;;;4227910;27;20210;-75
2022/06/17 05:51:18;;;;;;;2.83;2.53;;;24.40;95.00;;;;;;4226659;27;20756;-75
2022/06/17 05:53:20;;;;;;;2.75;1.83;;;24.40;95.00;;;;;;4229580;27;20270;-76
2022/06/17 05:55:25;;;;;;;2.75;2.22;;;24.40;95.00;;;;;;4229190;27;20222;-75
2022/06/17 05:57:27;;;;;;;3.78;2.20;;;24.40;95.10;;;;;;4226223;27;20218;-75
2022/06/17 05:59:29;;;;;;;2.33;2.13;;;24.40;95.10;;;;;;4225625;28;20213;-75
2022/06/17 06:01:32;;;;;;;3.13;2.35;;;24.40;95.00;;;;;;4227110;27;20301;-75
2022/06/17 06:03:34;;;;;;;3.33;2.05;;;24.40;95.00;;;;;;4232179;27;20213;-75
2022/06/17 06:05:38;;;;;;;2.50;2.10;;;24.40;95.10;;;;;;4224358;28;20942;-75
2022/06/17 06:07:40;;;;;;;2.65;2.45;;;24.40;95.00;;;;;;4225098;28;20650;-75
2022/06/17 06:09:42;;;;;;;2.78;2.25;;;24.40;95.40;;;;;;4226236;28;20213;-75
2022/06/17 06:11:44;;;;;;;2.60;2.40;;;24.40;95.20;;;;;;4229012;27;20222;-75
2022/06/17 06:13:47;;;;;;;2.40;2.20;;;24.40;95.20;;;;;;4229674;27;20202;-75
2022/06/17 06:15:54;;;;;;;2.40;2.20;;;24.40;95.30;;;;;;4226502;27;20277;-75
2022/06/17 06:17:56;;;;;;;2.30;2.10;;;24.40;95.20;;;;;;4231112;27;20214;-76
2022/06/17 06:19:59;;;;;;;2.45;2.25;;;24.40;95.10;;;;;;4229606;27;20206;-75
2022/06/17 06:22:03;;;;;;;2.40;2.00;;;24.40;95.20;;;;;;4227599;27;20234;-75
2022/06/17 06:24:09;;;;;;;3.72;2.40;;;24.40;95.10;;;;;;4228678;27;20263;-75
2022/06/17 06:26:14;;;;;;;2.20;1.98;;;24.40;95.30;;;;;;4229388;27;20256;-75
2022/06/17 06:28:18;;;;;;;3.80;2.20;;;24.40;95.30;;;;;;4227343;27;20666;-76
2022/06/17 06:30:24;;;;;;;3.22;2.45;;;24.40;95.30;;;;;;4228765;27;20267;-75
2022/06/17 06:32:27;;;;;;;2.17;1.98;;;24.40;95.30;;;;;;4226867;28;20617;-75
2022/06/17 06:34:29;;;;;;;2.45;2.25;;;24.40;95.30;;;;;;4226859;27;20217;-76
2022/06/17 06:36:31;;;;;;;2.95;2.17;;;24.40;95.40;;;;;;4222112;27;20218;-76
2022/06/17 06:38:35;;;;;;;2.33;2.13;;;24.40;95.40;;;;;;4227385;27;20213;-75
2022/06/17 06:40:37;;;;;;;2.33;2.10;;;24.40;95.20;;;;;;4229294;27;20210;-76
2022/06/17 06:42:39;;;;;;;3.30;2.25;;;24.40;95.20;;;;;;4227127;27;20640;-75
2022/06/17 06:44:43;;;;;;;2.63;2.42;;;24.40;95.30;;;;;;4224671;28;20213;-75
2022/06/17 06:46:45;;;;;;;2.85;2.38;;;24.40;95.30;;;;;;4227111;27;20235;-75
2022/06/17 06:48:48;;;;;;;3.78;2.13;;;24.40;95.20;;;;;;4228039;27;20255;-75
2022/06/17 06:50:51;;;;;;;4.32;2.40;;;24.40;95.20;;;;;;4226287;27;20309;-75
2022/06/17 06:52:54;;;;;;;3.72;2.30;;;24.40;95.20;;;;;;4227140;27;20263;-75
2022/06/17 06:54:57;;;;;;;2.85;2.30;;;24.40;95.30;;;;;;4226105;27;20209;-76
2022/06/17 06:57:00;;;;;;;3.17;2.13;;;24.40;95.30;;;;;;4226111;28;20213;-75
2022/06/17 06:59:03;;;;;;;8.60;2.85;;;24.40;95.20;;;;;;4226330;27;20220;-78
2022/06/17 07:01:06;;;;;;;7.63;2.97;;;24.40;94.20;;;;;;4223578;27;20635;-78
2022/06/17 07:03:09;;;;;;;6.13;3.30;;;24.30;93.90;;;;;;4225628;27;20292;-79
2022/06/17 07:05:12;;;;;;;7.18;3.15;;;24.10;94.60;;;;;;4232016;27;20267;-80
2022/06/17 07:07:14;;;;;;;6.05;3.00;;;23.90;94.40;;;;;;4236380;27;20217;-80
2022/06/17 07:09:20;;;;;;;6.40;3.20;;;23.90;94.30;;;;;;4237683;27;20225;-80
2022/06/17 07:11:25;;;;;;;9.75;2.72;;;23.80;94.70;;;;;;4213258;27;20246;-81
2022/06/17 07:13:29;;;;;;;6.22;3.25;;;23.70;94.80;;;;;;4203807;28;20222;-79
2022/06/17 07:15:31;;;;;;;10.27;3.42;;;23.80;94.40;;;;;;4206393;28;20917;-79
2022/06/17 07:17:34;;;;;;;10.00;3.58;;;23.80;94.90;;;;;;4207459;28;20627;-79
2022/06/17 07:19:36;;;;;;;9.38;3.40;;;23.90;95.10;;;;;;4200560;28;20219;-81
2022/06/17 07:21:38;;;;;;;9.88;3.50;;;23.90;94.90;;;;;;4205353;28;20257;-77
2022/06/17 07:23:42;;;;;;;6.82;3.45;;;23.90;95.20;;;;;;4205552;28;20210;-76
2022/06/17 07:25:45;;;;;;;14.25;3.13;;;23.90;95.20;;;;;;4206421;28;20310;-77
2022/06/17 07:27:49;;;;;;;11.85;3.55;;;23.90;95.10;;;;;;4207260;28;20222;-76
2022/06/17 07:29:52;;;;;;;8.98;3.28;;;23.80;94.90;;;;;;4207269;28;20256;-78
2022/06/17 07:31:54;;;;;;;8.02;3.35;;;23.80;94.80;;;;;;4205609;28;20715;-78
2022/06/17 07:33:57;;;;;;;6.00;3.17;;;23.90;95.20;;;;;;4206024;28;20608;-78
2022/06/17 07:36:01;;;;;;;10.10;3.63;;;23.90;94.60;;;;;;4206127;28;20210;-77
2022/06/17 07:40:22;;;;;;;8.43;3.10;;;24.00;94.90;;;;;;4202082;28;20235;-76
2022/06/17 07:42:37;;;;;;;8.50;3.45;;;24.00;94.70;;;;;;4199754;28;20238;-77
2022/06/17 07:44:40;;;;;;;7.40;3.10;;;24.10;94.70;;;;;;4206795;28;20999;-77
2022/06/17 07:46:43;;;;;;;7.55;3.33;;;24.00;94.70;;;;;;4201344;28;20218;-77
2022/06/17 07:48:46;;;;;;;8.20;3.78;;;24.10;94.70;;;;;;4207954;28;20704;-77
2022/06/17 07:50:48;;;;;;;9.00;3.47;;;24.10;94.50;;;;;;4205795;28;20214;-77
2022/06/17 07:52:50;;;;;;;11.80;3.80;;;24.10;94.70;;;;;;4196820;28;20273;-78
2022/06/17 07:54:53;;;;;;;9.23;3.58;;;24.10;94.30;;;;;;4200198;28;20211;-77
2022/06/17 07:56:55;;;;;;;6.63;3.20;;;24.20;94.20;;;;;;4204816;28;20268;-76
2022/06/17 07:58:58;;;;;;;9.73;3.78;;;24.20;93.70;;;;;;4202125;28;20226;-76
2022/06/17 08:01:01;;;;;;;10.18;3.90;;;24.20;94.00;;;;;;4202456;28;20218;-77
2022/06/17 08:03:05;;;;;;;12.85;4.07;;;24.40;94.40;;;;;;4203197;28;20242;-80
2022/06/17 08:05:08;;;;;;;7.10;3.78;;;24.30;94.50;;;;;;4198613;28;20292;-78
2022/06/17 08:07:12;;;;;;;8.60;3.38;;;24.40;94.40;;;;;;4202610;28;20202;-79
2022/06/17 08:09:14;;;;;;;11.50;4.00;;;24.50;94.20;;;;;;4205469;28;20207;-77
2022/06/17 08:11:17;;;;;;;11.52;3.47;;;24.50;94.20;;;;;;4209089;28;20226;-77
2022/06/17 08:13:20;;;;;;;11.70;4.03;;;24.40;94.50;;;;;;4221886;28;20279;-76
2022/06/17 08:15:23;;;;;;;7.75;3.92;;;24.30;94.50;;;;;;4227510;28;20642;-77
2022/06/17 08:17:28;;;;;;;8.73;4.10;;;24.40;94.60;;;;;;4230215;28;20209;-76
2022/06/17 08:19:30;;;;;;;9.75;3.80;;;24.40;94.30;;;;;;4221280;28;20205;-78
2022/06/17 08:21:32;;;;;;;10.63;3.40;;;24.40;94.00;;;;;;4224605;28;20215;-80
2022/06/17 08:23:35;;;;;;;7.55;3.47;;;24.50;94.10;;;;;;4224372;28;20242;-78
2022/06/17 08:25:38;;;;;;;6.65;2.83;;;24.50;93.70;;;;;;4220534;28;20222;-78
2022/06/17 08:27:44;;;;;;;6.32;3.08;;;24.60;93.50;;;;;;4223706;28;20214;-77
2022/06/17 08:29:46;;;;;;;6.10;3.15;;;24.60;93.60;;;;;;4217878;28;20615;-75
2022/06/17 08:31:48;;;;;;;7.50;3.15;;;24.60;93.50;;;;;;4218572;28;20210;-76
2022/06/17 08:33:52;;;;;;;6.35;2.83;;;24.60;93.40;;;;;;4224073;28;20259;-76
2022/06/17 08:35:56;;;;;;;11.13;3.47;;;24.60;93.60;;;;;;4218197;28;20647;-75
2022/06/17 08:38:02;;;;;;;7.47;3.20;;;24.60;93.70;;;;;;4226133;28;20271;-76
2022/06/17 08:40:18;;;;;;;6.85;3.10;;;24.60;93.70;;;;;;4226292;28;20326;-76
2022/06/17 08:42:40;;;;;;;6.65;2.83;;;24.70;93.70;;;;;;4233004;28;20233;-75
2022/06/17 08:44:49;;;;;;;6.65;2.90;;;24.70;93.50;;;;;;4213615;28;20206;-77
2022/06/17 08:47:04;;;;;;;10.15;2.92;;;24.70;93.60;;;;;;4228407;28;20267;-76
2022/06/17 08:49:41;;;;;;;7.70;3.50;;;24.70;93.60;;;;;;4216638;28;20262;-78
2022/06/17 08:52:05;;;;;;;4.20;2.67;;;24.80;93.40;;;;;;4219918;28;20658;-77
2022/06/17 08:54:34;;;;;;;7.53;2.97;;;24.80;93.20;;;;;;4221408;28;20217;-78
2022/06/17 08:56:45;;;;;;;5.45;2.47;;;24.90;92.80;;;;;;4217023;28;20214;-75
2022/06/17 08:58:56;;;;;;;5.40;2.90;;;25.00;92.40;;;;;;4218953;28;20693;-76
2022/06/17 09:01:08;;;;;;;3.45;2.55;;;24.90;92.30;;;;;;4215790;28;20213;-77
2022/06/17 09:03:30;;;;;;;9.23;3.13;;;24.90;92.60;;;;;;4223773;28;20245;-76
2022/06/17 09:05:46;;;;;;;8.63;3.03;;;24.90;92.40;;;;;;4224918;27;20283;-75
2022/06/17 09:08:01;;;;;;;7.97;2.97;;;24.80;93.30;;;;;;4221058;28;20221;-77
2022/06/17 09:10:19;;;;;;;6.13;3.22;;;24.90;93.00;;;;;;4227720;27;20267;-76
2022/06/17 09:12:31;;;;;;;8.32;3.65;;;24.90;92.60;;;;;;4217748;27;21115;-77
2022/06/17 09:14:46;;;;;;;6.47;3.42;;;25.00;92.70;;;;;;4224587;27;20262;-78
2022/06/17 09:16:55;;;;;;;8.93;3.42;;;25.00;92.50;;;;;;4240476;27;20656;-78
2022/06/17 09:19:02;;;;;;;5.10;3.10;;;25.00;92.30;;;;;;4240194;27;20273;-77
2022/06/17 09:21:14;;;;;;;5.78;3.10;;;25.00;92.40;;;;;;4240159;27;20213;-78
2022/06/17 09:23:21;;;;;;;9.95;2.75;;;25.10;92.10;;;;;;4243288;27;20281;-77
2022/06/17 09:25:28;;;;;;;5.10;2.17;;;25.10;92.00;;;;;;4241430;27;20216;-77
2022/06/17 09:27:36;;;;;;;5.40;2.47;;;25.10;91.80;;;;;;4242936;27;20274;-78
2022/06/17 09:29:42;;;;;;;4.07;2.40;;;25.10;91.60;;;;;;4238560;27;20258;-79
2022/06/17 09:31:48;;;;;;;7.88;2.40;;;25.10;91.10;;;;;;4244170;27;20205;-78
2022/06/17 09:33:56;;;;;;;7.40;2.55;;;25.20;91.00;;;;;;4242152;27;20205;-78
2022/06/17 09:36:05;;;;;;;6.75;2.30;;;25.30;90.30;;;;;;4243029;27;20234;-80
2022/06/17 09:38:14;;;;;;;6.07;2.53;;;25.30;90.50;;;;;;4242027;27;20232;-78
2022/06/17 09:40:22;;;;;;;5.25;2.40;;;25.20;90.40;;;;;;4243036;27;20281;-78
2022/06/17 09:42:29;;;;;;;6.43;2.53;;;25.30;90.30;;;;;;4243362;27;20648;-77
2022/06/17 09:44:37;;;;;;;5.75;2.88;;;25.30;90.00;;;;;;4239884;27;20275;-76
2022/06/17 09:46:45;;;;;;;8.45;2.95;;;25.30;89.80;;;;;;4239447;27;21186;-77
2022/06/17 09:48:54;;;;;;;3.72;2.65;;;25.30;90.00;;;;;;4245405;27;20624;-75
2022/06/17 09:51:02;;;;;;;7.55;2.45;;;25.30;89.20;;;;;;4240607;27;20247;-76
2022/06/17 09:53:11;;;;;;;4.55;2.42;;;25.30;89.30;;;;;;4241000;27;20674;-77
2022/06/17 09:55:21;;;;;;;8.00;2.38;;;25.40;88.50;;;;;;4241992;27;20267;-77
2022/06/17 09:57:29;;;;;;;3.70;1.90;;;25.50;88.30;;;;;;4243437;27;20262;-77
2022/06/17 09:59:35;;;;;;;4.15;2.05;;;25.50;87.80;;;;;;4242229;27;20213;-78
2022/06/17 10:01:37;;;;;;;3.70;2.10;;;25.50;88.60;;;;;;4241166;27;20274;-76
2022/06/17 10:03:40;;;;;;;8.52;3.50;;;25.40;88.80;;;;;;4240446;27;20267;-77
2022/06/17 10:05:48;;;;;;;5.70;2.88;;;25.60;90.00;;;;;;4242467;27;20675;-78
2022/06/17 10:07:59;;;;;;;4.53;3.25;;;25.50;89.90;;;;;;4242418;27;20204;-78
2022/06/17 10:10:17;;;;;;;7.65;3.45;;;25.60;90.00;;;;;;4245286;27;20610;-80
2022/06/17 10:12:30;;;;;;;8.35;4.07;;;25.60;89.40;;;;;;4227589;28;20239;-79
2022/06/17 10:14:47;;;;;;;6.70;3.92;;;25.80;89.40;;;;;;4223279;28;20286;-78
2022/06/17 10:19:29;;;;;;;7.05;3.13;;;25.70;88.90;;;;;;4224930;28;20214;-80
2022/06/17 10:21:44;;;;;;;5.03;2.47;;;25.70;88.50;;;;;;4223192;28;20263;-80
2022/06/17 10:23:56;;;;;;;4.60;2.72;;;25.90;88.60;;;;;;4227014;28;20746;-80
2022/06/17 10:26:11;;;;;;;4.07;2.63;;;25.80;89.10;;;;;;4223111;28;20658;-79
2022/06/17 10:28:31;;;;;;;7.22;2.95;;;25.70;89.60;;;;;;4223903;28;20214;-80
2022/06/17 10:30:42;;;;;;;6.25;2.45;;;25.80;90.00;;;;;;4224214;28;20267;-80
2022/06/17 10:32:47;;;;;;;5.43;2.47;;;25.90;90.40;;;;;;4226455;28;20221;-78
2022/06/17 10:34:54;;;;;;;5.15;2.35;;;25.90;90.00;;;;;;4220009;28;20217;-79
2022/06/17 10:37:11;;;;;;;6.85;2.20;;;25.90;89.90;;;;;;4204647;27;20207;-76
2022/06/17 10:39:15;;;;;;;4.60;2.40;;;26.00;90.00;;;;;;4208782;27;20218;-77
2022/06/17 10:41:19;;;;;;;2.83;2.13;;;26.00;89.70;;;;;;4197841;27;20319;-76
2022/06/17 10:43:29;;;;;;;6.18;2.70;;;26.00;89.80;;;;;;4195421;27;20303;-76
2022/06/17 10:45:33;;;;;;;7.72;2.60;;;25.90;89.90;;;;;;4194492;27;20265;-76
2022/06/17 10:47:43;;;;;;;4.18;2.40;;;26.00;90.40;;;;;;4193828;27;21082;-76
2022/06/17 10:49:50;;;;;;;4.25;2.17;;;26.00;90.10;;;;;;4194148;27;20222;-76
2022/06/17 10:51:54;;;;;;;7.28;2.20;;;26.10;90.10;;;;;;4196476;27;20627;-75
2022/06/17 10:54:02;;;;;;;6.70;3.03;;;26.10;89.90;;;;;;4201137;27;20268;-77
2022/06/17 10:56:09;;;;;;;6.18;3.13;;;26.20;89.30;;;;;;4219732;27;20572;-78
2022/06/17 10:58:17;;;;;;;5.95;3.40;;;26.10;89.90;;;;;;4229340;27;20217;-78
2022/06/17 11:00:25;;;;;;;8.05;3.63;;;26.10;89.00;;;;;;4224436;27;20263;-78
2022/06/17 11:02:30;;;;;;;4.55;2.63;;;26.10;88.90;;;;;;4226993;27;20281;-77